createdAt,value
2017-10-22T00:02:17.016Z,27.80
2017-10-22T00:04:45.660Z,27.70
2017-10-22T00:07:13.710Z,27.70
2017-10-22T00:09:42.453Z,27.60
2017-10-22T00:12:10.530Z,27.60
2017-10-22T00:14:39.219Z,27.70
2017-10-22T00:17:07.686Z,27.70
2017-10-22T00:19:36.338Z,27.70
2017-10-22T00:22:05.678Z,27.50
2017-10-22T00:24:33.675Z,27.50
2017-10-22T00:27:01.723Z,27.50
2017-10-22T00:29:30.442Z,27.30
2017-10-22T00:31:58.495Z,27.40
2017-10-22T00:34:26.926Z,27.40
2017-10-22T00:36:54.932Z,27.50
2017-10-22T00:39:22.944Z,27.40
2017-10-22T00:41:50.980Z,27.40
2017-10-22T00:44:19.094Z,27.30
2017-10-22T00:46:47.902Z,27.40
2017-10-22T00:49:16.842Z,27.40
2017-10-22T00:51:45.454Z,27.40
2017-10-22T00:54:13.527Z,27.40
2017-10-22T00:56:41.564Z,27.40
2017-10-22T00:59:10.108Z,27.30
2017-10-22T01:01:39.554Z,27.30
2017-10-22T01:04:08.991Z,27.30
2017-10-22T01:06:37.741Z,27.20
2017-10-22T01:09:05.787Z,27.20
2017-10-22T01:11:33.963Z,27.20
2017-10-22T01:14:02.682Z,27.20
2017-10-22T01:16:30.771Z,27.20
2017-10-22T01:18:59.308Z,27.20
2017-10-22T01:21:27.786Z,27.30
2017-10-22T01:23:55.890Z,27.30
2017-10-22T01:26:24.112Z,27.30
2017-10-22T01:28:52.359Z,27.30
2017-10-22T01:31:20.854Z,27.20
2017-10-22T01:33:49.045Z,27.20
2017-10-22T01:36:17.650Z,27.20
2017-10-22T01:38:46.689Z,27.20
2017-10-22T01:41:14.783Z,27.20
2017-10-22T01:43:42.967Z,27.20
2017-10-22T01:46:11.662Z,27.20
2017-10-22T01:48:40.124Z,27.10
2017-10-22T01:51:08.400Z,27.20
2017-10-22T01:53:37.064Z,27.10
2017-10-22T01:56:05.228Z,27.10
2017-10-22T01:58:33.347Z,27.10
2017-10-22T02:01:02.229Z,27.10
2017-10-22T02:03:30.278Z,27.10
2017-10-22T02:05:58.832Z,27.10
2017-10-22T02:08:27.380Z,27.00
2017-10-22T02:10:56.073Z,27.00
2017-10-22T02:13:24.199Z,27.00
2017-10-22T02:15:52.935Z,27.00
2017-10-22T02:18:22.207Z,27.00
2017-10-22T02:20:51.050Z,27.00
2017-10-22T02:23:20.398Z,27.10
2017-10-22T02:25:48.469Z,27.00
2017-10-22T02:28:16.455Z,27.00
2017-10-22T02:30:45.111Z,27.00
2017-10-22T02:33:13.732Z,26.90
2017-10-22T02:35:43.098Z,27.00
2017-10-22T02:38:11.554Z,27.00
2017-10-22T02:40:40.284Z,27.00
2017-10-22T02:43:08.263Z,27.00
2017-10-22T02:45:36.902Z,27.00
2017-10-22T02:48:06.247Z,27.00
2017-10-22T02:50:34.855Z,27.00
2017-10-22T02:53:03.000Z,27.00
2017-10-22T02:55:31.489Z,27.00
2017-10-22T02:58:00.088Z,27.10
2017-10-22T03:00:28.758Z,27.10
2017-10-22T03:02:57.202Z,27.20
2017-10-22T03:05:26.742Z,27.30
2017-10-22T03:07:54.771Z,27.30
2017-10-22T03:10:24.092Z,27.40
2017-10-22T03:12:53.430Z,27.50
2017-10-22T03:15:22.823Z,27.40
2017-10-22T03:17:50.914Z,27.60
2017-10-22T03:20:19.015Z,27.90
2017-10-22T03:22:47.534Z,28.00
2017-10-22T03:25:16.231Z,28.00
2017-10-22T03:27:44.250Z,28.10
2017-10-22T03:30:12.260Z,28.10
2017-10-22T03:32:40.834Z,28.20
2017-10-22T03:35:10.178Z,28.40
2017-10-22T03:37:38.808Z,28.40
2017-10-22T03:40:08.230Z,28.60
2017-10-22T03:42:37.011Z,28.60
2017-10-22T03:45:05.777Z,28.40
2017-10-22T03:47:34.503Z,28.40
2017-10-22T03:50:03.080Z,28.60
2017-10-22T03:52:32.595Z,28.90
2017-10-22T03:55:01.067Z,28.90
2017-10-22T03:57:29.832Z,29.20
2017-10-22T03:59:57.910Z,29.30
2017-10-22T04:02:26.350Z,29.20
2017-10-22T04:04:54.430Z,29.60
2017-10-22T04:07:22.435Z,30.10
2017-10-22T04:09:51.166Z,30.80
2017-10-22T04:12:19.208Z,30.90
2017-10-22T04:14:47.954Z,30.70
2017-10-22T04:17:16.020Z,30.70
2017-10-22T04:19:44.094Z,30.60
2017-10-22T04:22:12.671Z,30.50
2017-10-22T04:24:41.970Z,30.50
2017-10-22T04:27:10.768Z,30.40
2017-10-22T04:29:38.818Z,30.40
2017-10-22T04:32:06.815Z,30.60
2017-10-22T04:34:35.474Z,30.80
2017-10-22T04:37:04.170Z,31.00
2017-10-22T04:39:32.290Z,31.10
2017-10-22T04:42:00.268Z,31.00
2017-10-22T04:44:28.976Z,31.20
2017-10-22T04:46:57.794Z,31.40
2017-10-22T04:49:25.832Z,31.50
2017-10-22T04:51:55.271Z,31.70
2017-10-22T04:54:23.792Z,31.70
2017-10-22T04:56:51.998Z,31.70
2017-10-22T04:59:20.780Z,32.30
2017-10-22T05:01:49.536Z,32.50
2017-10-22T05:04:18.171Z,32.40
2017-10-22T05:06:47.348Z,32.80
2017-10-22T05:09:15.917Z,32.90
2017-10-22T05:11:44.647Z,33.10
2017-10-22T05:14:12.866Z,33.20
2017-10-22T05:16:40.912Z,33.40
2017-10-22T05:19:09.470Z,33.50
2017-10-22T05:21:38.816Z,33.80
2017-10-22T05:24:07.328Z,33.80
2017-10-22T05:26:36.573Z,34.10
2017-10-22T05:29:04.668Z,34.10
2017-10-22T05:31:32.701Z,34.30
2017-10-22T05:34:01.461Z,35.20
2017-10-22T05:36:29.980Z,35.10
2017-10-22T05:38:58.741Z,37.30
2017-10-22T05:41:27.527Z,37.20
2017-10-22T05:43:55.570Z,38.40
2017-10-22T05:46:23.557Z,39.00
2017-10-22T05:48:51.609Z,38.90
2017-10-22T05:51:20.342Z,38.70
2017-10-22T05:53:49.675Z,37.90
2017-10-22T05:56:17.647Z,37.80
2017-10-22T05:58:45.842Z,37.40
2017-10-22T06:01:13.914Z,37.40
2017-10-22T06:03:41.967Z,37.10
2017-10-22T06:06:10.540Z,36.70
2017-10-22T06:08:39.390Z,36.20
2017-10-22T06:11:08.138Z,36.20
2017-10-22T06:13:36.991Z,36.20
2017-10-22T06:16:05.827Z,36.00
2017-10-22T06:18:33.816Z,36.00
2017-10-22T06:21:01.883Z,36.00
2017-10-22T06:23:30.499Z,36.00
2017-10-22T06:25:58.958Z,36.10
2017-10-22T06:28:27.443Z,36.10
2017-10-22T06:30:56.203Z,36.20
2017-10-22T06:33:24.220Z,36.00
2017-10-22T06:35:52.489Z,36.20
2017-10-22T06:38:21.151Z,36.20
2017-10-22T06:40:49.662Z,36.20
2017-10-22T06:43:17.850Z,36.10
2017-10-22T06:45:46.600Z,36.30
2017-10-22T06:48:14.672Z,37.00
2017-10-22T06:50:42.861Z,38.10
2017-10-22T06:53:20.441Z,39.10
2017-10-22T06:55:49.647Z,39.70
2017-10-22T06:58:17.848Z,40.00
2017-10-22T07:00:46.267Z,39.60
2017-10-22T07:03:15.094Z,38.60
2017-10-22T07:05:43.280Z,38.50
2017-10-22T07:08:11.463Z,38.10
2017-10-22T07:10:39.584Z,37.50
2017-10-22T07:13:07.750Z,37.60
2017-10-22T07:15:36.603Z,37.20
2017-10-22T07:18:04.677Z,37.20
2017-10-22T07:20:32.726Z,37.10
2017-10-22T07:23:00.759Z,37.00
2017-10-22T07:25:29.532Z,36.90
2017-10-22T07:27:57.539Z,36.90
2017-10-22T07:30:25.535Z,36.90
2017-10-22T07:32:53.536Z,36.80
2017-10-22T07:35:21.702Z,36.80
2017-10-22T07:37:50.636Z,36.80
2017-10-22T07:40:19.218Z,37.00
2017-10-22T07:42:48.346Z,36.90
2017-10-22T07:45:17.018Z,37.00
2017-10-22T07:47:45.028Z,36.80
2017-10-22T07:50:13.135Z,36.60
2017-10-22T07:52:41.878Z,36.80
2017-10-22T07:55:10.635Z,36.80
2017-10-22T07:57:39.176Z,36.70
2017-10-22T08:00:07.708Z,36.70
2017-10-22T08:02:35.883Z,36.80
2017-10-22T08:05:03.880Z,37.00
2017-10-22T08:07:31.944Z,37.30
2017-10-22T08:10:00.656Z,38.00
2017-10-22T08:12:29.190Z,38.50
2017-10-22T08:14:57.656Z,37.70
2017-10-22T08:17:26.973Z,37.00
2017-10-22T08:19:55.030Z,37.00
2017-10-22T08:22:23.791Z,36.40
2017-10-22T08:24:52.328Z,36.40
2017-10-22T08:27:21.124Z,36.60
2017-10-22T08:29:49.739Z,36.60
2017-10-22T08:32:18.177Z,36.60
2017-10-22T08:34:46.188Z,36.50
2017-10-22T08:37:14.191Z,36.30
2017-10-22T08:39:42.915Z,36.40
2017-10-22T08:42:11.011Z,36.50
2017-10-22T08:44:39.788Z,36.30
2017-10-22T08:47:08.879Z,36.40
2017-10-22T08:49:37.459Z,36.40
2017-10-22T08:52:05.563Z,36.30
2017-10-22T08:54:34.331Z,36.40
2017-10-22T08:57:02.947Z,36.50
2017-10-22T08:59:31.487Z,36.40
2017-10-22T09:02:00.066Z,36.30
2017-10-22T09:04:28.973Z,36.20
2017-10-22T09:06:57.112Z,36.20
2017-10-22T09:09:26.700Z,36.40
2017-10-22T09:11:55.955Z,36.30
2017-10-22T09:14:24.803Z,36.30
2017-10-22T09:16:53.451Z,36.30
2017-10-22T09:19:21.568Z,36.40
2017-10-22T09:21:49.672Z,36.30
2017-10-22T09:24:17.737Z,36.20
2017-10-22T09:26:48.035Z,36.20
2017-10-22T09:29:16.694Z,36.20
2017-10-22T09:31:45.338Z,36.30
2017-10-22T09:34:14.175Z,36.00
2017-10-22T09:36:42.698Z,36.00
2017-10-22T09:39:12.980Z,36.10
2017-10-22T09:41:41.518Z,36.10
2017-10-22T09:44:15.384Z,35.80
2017-10-22T09:46:44.428Z,35.80
2017-10-22T09:49:13.156Z,35.80
2017-10-22T09:51:43.010Z,35.70
2017-10-22T09:54:11.120Z,35.60
2017-10-22T09:56:39.726Z,35.80
2017-10-22T09:59:08.632Z,35.70
2017-10-22T10:01:37.098Z,35.60
2017-10-22T10:04:05.787Z,35.40
2017-10-22T10:06:34.742Z,35.40
2017-10-22T10:09:04.390Z,35.20
2017-10-22T10:11:34.263Z,35.20
2017-10-22T10:14:03.359Z,35.40
2017-10-22T10:16:32.602Z,35.30
2017-10-22T10:19:00.705Z,35.30
2017-10-22T10:21:28.998Z,35.40
2017-10-22T10:23:57.851Z,35.40
2017-10-22T10:26:26.714Z,35.40
2017-10-22T10:28:55.571Z,35.40
2017-10-22T10:31:24.990Z,35.20
2017-10-22T10:33:54.269Z,35.20
2017-10-22T10:36:22.863Z,35.20
2017-10-22T10:38:51.742Z,35.20
2017-10-22T10:41:19.832Z,35.20
2017-10-22T10:43:48.763Z,35.10
2017-10-22T10:46:17.434Z,35.10
2017-10-22T10:48:46.723Z,34.90
2017-10-22T10:51:16.038Z,34.80
2017-10-22T10:53:45.270Z,34.80
2017-10-22T10:56:13.460Z,34.90
2017-10-22T10:58:42.503Z,34.90
2017-10-22T11:01:11.303Z,34.80
2017-10-22T11:03:40.000Z,34.80
2017-10-22T11:06:08.695Z,34.80
2017-10-22T11:08:36.891Z,34.90
2017-10-22T11:11:05.246Z,34.90
2017-10-22T11:13:33.638Z,34.90
2017-10-22T11:16:01.696Z,34.90
2017-10-22T11:18:30.265Z,34.90
2017-10-22T11:20:58.932Z,34.80
2017-10-22T11:23:27.711Z,34.70
2017-10-22T11:25:56.460Z,34.70
2017-10-22T11:28:25.076Z,34.70
2017-10-22T11:30:53.659Z,34.60
2017-10-22T11:33:22.289Z,34.70
2017-10-22T11:35:50.491Z,34.60
2017-10-22T11:38:18.546Z,34.60
2017-10-22T11:40:46.541Z,34.50
2017-10-22T11:43:14.681Z,34.60
2017-10-22T11:45:43.122Z,34.40
2017-10-22T11:48:11.862Z,34.40
2017-10-22T11:50:40.470Z,34.40
2017-10-22T11:53:08.480Z,34.50
2017-10-22T11:55:37.275Z,34.20
2017-10-22T11:58:06.199Z,34.30
2017-10-22T12:00:34.910Z,34.30
2017-10-22T12:03:02.883Z,34.20
2017-10-22T12:05:31.012Z,34.20
2017-10-22T12:07:59.781Z,34.00
2017-10-22T12:10:28.012Z,34.00
2017-10-22T12:12:56.193Z,34.00
2017-10-22T12:15:24.310Z,33.90
2017-10-22T12:17:53.108Z,33.90
2017-10-22T12:20:22.049Z,33.80
2017-10-22T12:22:50.134Z,33.80
2017-10-22T12:25:18.190Z,33.90
2017-10-22T12:27:46.422Z,33.80
2017-10-22T12:30:15.227Z,33.80
2017-10-22T12:32:44.035Z,33.70
2017-10-22T12:35:12.198Z,33.70
2017-10-22T12:37:40.220Z,33.70
2017-10-22T12:40:08.295Z,33.70
2017-10-22T12:42:36.427Z,33.70
2017-10-22T12:45:04.446Z,33.70
2017-10-22T12:47:32.588Z,33.60
2017-10-22T12:50:00.881Z,33.60
2017-10-22T12:52:28.844Z,33.60
2017-10-22T12:54:56.884Z,33.50
2017-10-22T12:57:25.066Z,33.50
2017-10-22T12:59:53.118Z,33.40
2017-10-22T13:02:21.921Z,33.30
2017-10-22T13:04:50.076Z,33.20
2017-10-22T13:07:18.824Z,33.20
2017-10-22T13:09:46.919Z,33.20
2017-10-22T13:12:15.196Z,33.20
2017-10-22T13:14:43.236Z,33.20
2017-10-22T13:17:11.623Z,33.20
2017-10-22T13:19:40.235Z,33.10
2017-10-22T13:22:08.967Z,33.00
2017-10-22T13:24:36.979Z,33.00
2017-10-22T13:27:05.150Z,33.00
2017-10-22T13:29:33.224Z,33.00
2017-10-22T13:32:01.254Z,32.90
2017-10-22T13:34:30.082Z,32.90
2017-10-22T13:36:58.115Z,32.90
2017-10-22T13:39:26.196Z,32.90
2017-10-22T13:41:54.436Z,32.80
2017-10-22T13:44:23.211Z,32.80
2017-10-22T13:46:51.796Z,32.80
2017-10-22T13:49:20.058Z,32.70
2017-10-22T13:51:48.592Z,32.70
2017-10-22T13:54:17.801Z,32.60
2017-10-22T13:56:46.011Z,32.60
2017-10-22T13:59:14.041Z,32.50
2017-10-22T14:01:42.094Z,32.40
2017-10-22T14:04:11.510Z,32.40
2017-10-22T14:06:40.887Z,32.40
2017-10-22T14:09:09.525Z,32.30
2017-10-22T14:11:37.710Z,32.30
2017-10-22T14:14:05.871Z,32.30
2017-10-22T14:16:33.926Z,32.30
2017-10-22T14:19:03.476Z,32.30
2017-10-22T14:21:32.035Z,32.30
2017-10-22T14:24:00.639Z,32.30
2017-10-22T14:26:29.258Z,32.20
2017-10-22T14:28:57.311Z,32.20
2017-10-22T14:31:25.319Z,32.20
2017-10-22T14:33:54.741Z,32.20
2017-10-22T14:36:24.086Z,32.20
2017-10-22T14:38:52.166Z,32.10
2017-10-22T14:41:20.281Z,32.10
2017-10-22T14:43:49.056Z,32.10
2017-10-22T14:46:17.092Z,32.20
2017-10-22T14:48:45.839Z,32.10
2017-10-22T14:51:15.047Z,32.20
2017-10-22T14:53:43.542Z,32.20
2017-10-22T14:56:12.426Z,32.20
2017-10-22T14:58:40.420Z,32.10
2017-10-22T15:01:08.462Z,32.00
2017-10-22T15:03:37.067Z,31.90
2017-10-22T15:06:05.410Z,32.00
2017-10-22T15:08:34.619Z,31.90
2017-10-22T15:11:04.200Z,31.90
2017-10-22T15:13:32.426Z,31.90
2017-10-22T15:16:00.701Z,31.90
2017-10-22T15:18:29.475Z,32.00
2017-10-22T15:20:58.301Z,32.00
2017-10-22T15:23:26.936Z,32.00
2017-10-22T15:25:56.320Z,32.00
2017-10-22T15:28:25.011Z,32.00
2017-10-22T15:30:53.076Z,32.00
2017-10-22T15:33:21.246Z,32.00
2017-10-22T15:35:49.285Z,32.00
2017-10-22T15:38:17.937Z,31.90
2017-10-22T15:40:47.350Z,31.90
2017-10-22T15:43:16.551Z,31.80
2017-10-22T15:45:45.355Z,31.80
2017-10-22T15:48:13.536Z,31.80
2017-10-22T15:50:42.107Z,31.80
2017-10-22T15:53:10.787Z,31.80
2017-10-22T15:55:40.329Z,31.90
2017-10-22T15:58:08.420Z,31.80
2017-10-22T16:00:36.521Z,31.80
2017-10-22T16:03:04.692Z,31.80
2017-10-22T16:05:33.151Z,31.80
2017-10-22T16:08:01.723Z,31.80
2017-10-22T16:10:30.361Z,31.80
2017-10-22T16:12:59.667Z,31.80
2017-10-22T16:15:28.381Z,31.70
2017-10-22T16:17:56.592Z,31.70
2017-10-22T16:20:25.218Z,31.70
2017-10-22T16:22:54.536Z,31.70
2017-10-22T16:25:23.206Z,31.70
2017-10-22T16:27:52.551Z,31.70
2017-10-22T16:30:20.635Z,31.70
2017-10-22T16:32:48.829Z,31.70
2017-10-22T16:35:16.791Z,31.60
2017-10-22T16:37:44.855Z,31.60
2017-10-22T16:40:13.129Z,31.60
2017-10-22T16:42:41.147Z,31.70
2017-10-22T16:45:10.571Z,31.60
2017-10-22T16:47:38.663Z,31.60
2017-10-22T16:50:06.690Z,31.60
2017-10-22T16:52:36.012Z,31.60
2017-10-22T16:55:04.919Z,31.50
2017-10-22T16:57:33.522Z,31.50
2017-10-22T17:00:02.071Z,31.60
2017-10-22T17:02:30.807Z,31.60
2017-10-22T17:04:58.842Z,31.60
2017-10-22T17:07:27.477Z,31.50
2017-10-22T17:09:56.256Z,31.50
2017-10-22T17:12:25.024Z,31.50
2017-10-22T17:14:53.034Z,31.50
2017-10-22T17:17:21.152Z,31.40
2017-10-22T17:19:49.438Z,31.50
2017-10-22T17:22:18.156Z,31.50
2017-10-22T17:24:47.004Z,31.40
2017-10-22T17:27:15.416Z,31.50
2017-10-22T17:29:43.870Z,31.40
2017-10-22T17:32:12.070Z,31.40
2017-10-22T17:34:40.332Z,31.40
2017-10-22T17:37:09.680Z,31.30
2017-10-22T17:39:38.351Z,31.30
2017-10-22T17:42:07.110Z,31.40
2017-10-22T17:44:35.566Z,31.30
2017-10-22T17:47:04.431Z,31.40
2017-10-22T17:49:32.515Z,31.30
2017-10-22T17:52:01.807Z,31.30
2017-10-22T17:54:29.966Z,31.30
2017-10-22T17:56:58.483Z,31.30
2017-10-22T17:59:27.867Z,31.30
2017-10-22T18:01:56.046Z,31.30
2017-10-22T18:04:24.191Z,31.30
2017-10-22T18:06:52.229Z,31.30
2017-10-22T18:09:21.111Z,31.30
2017-10-22T18:11:50.372Z,31.30
2017-10-22T18:14:18.860Z,31.20
2017-10-22T18:16:47.605Z,31.20
2017-10-22T18:19:15.642Z,31.30
2017-10-22T18:21:44.631Z,31.20
2017-10-22T18:24:13.966Z,31.20
2017-10-22T18:26:42.501Z,31.20
2017-10-22T18:29:11.238Z,31.20
2017-10-22T18:31:40.235Z,31.20
2017-10-22T18:34:08.207Z,31.20
2017-10-22T18:36:36.335Z,31.20
2017-10-22T18:39:04.786Z,31.20
2017-10-22T18:41:32.826Z,31.20
2017-10-22T18:44:02.338Z,31.10
2017-10-22T18:46:31.331Z,31.10
2017-10-22T18:48:59.338Z,31.10
2017-10-22T18:51:27.374Z,31.10
2017-10-22T18:53:55.947Z,31.00
2017-10-22T18:56:25.478Z,31.00
2017-10-22T18:58:54.078Z,31.00
2017-10-22T19:01:23.662Z,31.00
2017-10-22T19:03:51.696Z,31.00
2017-10-22T19:06:19.757Z,31.00
2017-10-22T19:08:47.952Z,31.00
2017-10-22T19:11:17.210Z,31.00
2017-10-22T19:13:45.764Z,31.00
2017-10-22T19:16:13.906Z,31.00
2017-10-22T19:18:43.352Z,30.90
2017-10-22T19:21:11.422Z,30.90
2017-10-22T19:23:39.722Z,30.90
2017-10-22T19:26:07.723Z,30.90
2017-10-22T19:28:35.774Z,30.90
2017-10-22T19:31:03.923Z,30.80
2017-10-22T19:33:31.942Z,30.80
2017-10-22T19:36:00.092Z,30.70
2017-10-22T19:38:28.179Z,30.70
2017-10-22T19:40:56.742Z,30.70
2017-10-22T19:43:25.302Z,30.70
2017-10-22T19:45:53.379Z,30.70
2017-10-22T19:48:21.919Z,30.70
2017-10-22T19:50:49.928Z,30.70
2017-10-22T19:53:18.102Z,30.70
2017-10-22T19:55:46.067Z,30.60
2017-10-22T19:58:14.663Z,30.60
2017-10-22T20:00:43.622Z,30.60
2017-10-22T20:03:12.435Z,30.50
2017-10-22T20:05:41.235Z,30.50
2017-10-22T20:08:09.406Z,30.50
2017-10-22T20:10:37.364Z,30.40
2017-10-22T20:13:06.170Z,30.40
2017-10-22T20:15:34.843Z,30.40
2017-10-22T20:18:03.591Z,30.00
2017-10-22T20:20:31.611Z,30.00
2017-10-22T20:22:59.697Z,30.00
2017-10-22T20:25:27.893Z,30.00
2017-10-22T20:27:56.510Z,30.00
2017-10-22T20:30:25.376Z,29.90
2017-10-22T20:32:53.911Z,29.90
2017-10-22T20:35:22.702Z,29.90
2017-10-22T20:37:51.565Z,29.80
2017-10-22T20:40:19.742Z,29.80
2017-10-22T20:42:47.872Z,29.70
2017-10-22T20:45:16.583Z,29.70
2017-10-22T20:47:45.361Z,29.50
2017-10-22T20:50:13.944Z,29.50
2017-10-22T20:52:42.102Z,29.50
2017-10-22T20:55:10.104Z,29.50
2017-10-22T20:57:38.914Z,29.50
2017-10-22T21:00:07.753Z,29.60
2017-10-22T21:02:37.353Z,29.50
2017-10-22T21:05:05.327Z,29.50
2017-10-22T21:07:33.485Z,29.50
2017-10-22T21:10:02.406Z,29.30
2017-10-22T21:12:31.007Z,29.30
2017-10-22T21:14:59.796Z,29.30
2017-10-22T21:17:27.830Z,29.20
2017-10-22T21:19:56.268Z,29.20
2017-10-22T21:22:24.388Z,29.10
2017-10-22T21:24:52.419Z,29.00
2017-10-22T21:27:20.638Z,28.90
2017-10-22T21:29:48.733Z,28.90
2017-10-22T21:32:17.467Z,28.90
2017-10-22T21:34:46.267Z,28.80
2017-10-22T21:37:15.755Z,28.80
2017-10-22T21:39:43.826Z,28.80
2017-10-22T21:42:11.987Z,28.80
2017-10-22T21:44:41.656Z,28.70
2017-10-22T21:47:10.145Z,28.70
2017-10-22T21:49:38.991Z,28.70
2017-10-22T21:52:07.240Z,28.80
2017-10-22T21:54:35.396Z,28.70
2017-10-22T21:57:03.437Z,28.80
2017-10-22T21:59:32.583Z,28.60
2017-10-22T22:02:01.342Z,28.60
2017-10-22T22:04:29.969Z,28.70
2017-10-22T22:06:58.158Z,28.60
2017-10-22T22:09:26.174Z,28.60
2017-10-22T22:11:54.187Z,28.60
2017-10-22T22:14:22.403Z,28.60
2017-10-22T22:16:51.931Z,28.50
2017-10-22T22:19:20.639Z,28.50
2017-10-22T22:21:49.334Z,28.50
2017-10-22T22:24:17.410Z,28.40
2017-10-22T22:26:45.486Z,28.50
2017-10-22T22:29:13.736Z,28.50
2017-10-22T22:31:42.479Z,28.50
2017-10-22T22:34:11.998Z,28.50
2017-10-22T22:36:41.354Z,28.50
2017-10-22T22:39:09.975Z,28.50
2017-10-22T22:41:38.034Z,28.40
2017-10-22T22:44:06.160Z,28.50
2017-10-22T22:46:34.628Z,28.50
2017-10-22T22:49:03.200Z,28.40
2017-10-22T22:51:31.957Z,28.40
2017-10-22T22:53:59.956Z,28.40
2017-10-22T22:56:28.695Z,28.40
2017-10-22T22:58:56.851Z,28.40
2017-10-22T23:01:25.320Z,28.40
2017-10-22T23:03:54.662Z,28.40
2017-10-22T23:06:23.348Z,28.30
2017-10-22T23:08:51.967Z,28.30
2017-10-22T23:11:19.987Z,28.30
2017-10-22T23:13:48.195Z,28.30
2017-10-22T23:16:16.778Z,28.30
2017-10-22T23:18:45.435Z,28.20
2017-10-22T23:21:14.423Z,28.20
2017-10-22T23:23:43.150Z,28.20
2017-10-22T23:26:11.127Z,28.10
2017-10-22T23:28:39.252Z,28.10
2017-10-22T23:31:07.827Z,28.10
2017-10-22T23:33:37.067Z,28.00
2017-10-22T23:36:05.699Z,28.00
2017-10-22T23:38:34.403Z,28.00
2017-10-22T23:41:02.490Z,28.00
2017-10-22T23:43:30.646Z,27.90
2017-10-22T23:45:59.390Z,28.00
2017-10-22T23:48:27.819Z,28.00
2017-10-22T23:50:57.366Z,27.90
2017-10-22T23:53:25.975Z,27.90
2017-10-22T23:55:54.651Z,27.80
2017-10-22T23:58:22.838Z,27.90
